Friend, NE (68359)

3:14 AM CDT on August 27, 2016 (GMT -0500)
3 Miles East of Friend | | Change Station

Elev 1531 ft 40.66 °N, 97.22 °W | Updated 8 seconds ago

Overcast
Overcast
66.5 °F
Feels Like 66.5 °F
N
3.3
Wind Variable Wind from NE
Gusts 3.5 mph

Today
High -- | Low -- °F
--% Chance of Precip.
Yesterday
High -- | Low -- °F
Precip. -- in
Pressure 30.00 in
Visibility 2.0 miles
Clouds Overcast 200 ft
Dew Point 66 °F
Humidity 97%
Rainfall 0.00 in
Snow Depth Not available.
6:51 AM 8:08 PM
Waning Crescent, 26% visible
METAR KJYR 270755Z AUTO 00000KT 2SM BR OVC002 19/18 A3000 RMK AO2
Pressure 30.00 in
Visibility 2.0 miles
Clouds Overcast 200 ft
Dew Point 66 °F
Humidity 97%
Rainfall 0.00 in
Snow Depth Not available.
6:51 AM 8:08 PM
Waning Crescent, 26% visible
METAR KJYR 270755Z AUTO 00000KT 2SM BR OVC002 19/18 A3000 RMK AO2

10-Day Weather Forecast

Almanac

Astronomy

Aug. 27, 2016 Rise Set
Actual Time
Civil Twilight
Nautical Twilight
Astronomical Twilight
Moon
Length of Visible Light
Length of Day
Tomorrow will be .
, % of the Moon is Illuminated

Today's Extremes

State Highs State Lows

Community

WunderPhotos

Upload Photos

1,935,303 photos uploaded!

WunderBlog® & News

Nearby

Air Quality

  Air Quality AQ Index Pollutant
Not available.

Snow Depth

Station Depth Elevation

Earthquake Activity

City Distance Mag. Time & Date
Minimum magnitude displayed is 2.5.

Coastal Water Temperatures

Place Temperature

Stations

Nearby Weather Stations

Station Location Temp. Windchill Dew Point Humidity Wind Precip. Elev Updated Type
                   

Watches & Warnings

There are currently no watches in effect.